Time;durP1;ratioP1;P1;durP2;ratioP2;P2;SDS_P1;SDS_P2;PMS_P1;PMS_P2;Temp;Humidity;BMP_temperature;BMP_pressure;BME280_temperature;BME280_humidity;BME280_pressure;Samples;Min_cycle;Max_cycle;Signal;HPM_P1;HPM_P2
2022/01/28 00:00:30;;;;;;;3.70;1.90;;;;;;;1.77;77.86;98596.91;2631473;28;20137;-78
2022/01/28 00:02:13;;;;;;;3.17;1.80;;;;;;;1.71;77.89;98600.28;2630722;28;20075;-80
2022/01/28 00:03:34;;;;;;;3.85;1.90;;;;;;;1.71;77.92;98602.00;2629669;28;20047;-78
2022/01/28 00:04:51;;;;;;;3.70;2.28;;;;;;;1.76;77.77;98595.19;2629469;28;20485;-78
2022/01/28 00:06:07;;;;;;;2.53;1.65;;;;;;;1.79;77.60;98603.78;2629723;28;20100;-79
2022/01/28 00:07:23;;;;;;;2.63;1.40;;;;;;;1.80;77.47;98597.78;2630991;28;20056;-78
2022/01/28 00:08:38;;;;;;;2.58;1.77;;;;;;;1.84;77.55;98601.25;2629431;28;20051;-78
2022/01/28 00:09:54;;;;;;;3.60;2.03;;;;;;;1.85;77.54;98604.72;2630574;28;20044;-84
2022/01/28 00:11:11;;;;;;;3.53;1.75;;;;;;;1.87;77.43;98601.28;2630163;28;20056;-79
2022/01/28 00:12:28;;;;;;;2.83;1.83;;;;;;;1.91;77.20;98599.59;2630813;28;20482;-78
2022/01/28 00:13:50;;;;;;;3.15;1.95;;;;;;;1.85;77.30;98603.00;2631902;28;20133;-78
2022/01/28 00:15:17;;;;;;;2.70;1.65;;;;;;;1.85;77.17;98604.72;2629435;28;20059;-79
2022/01/28 00:36:42;;;;;;;2.80;1.55;;;;;;;1.87;77.45;98624.53;2630535;28;20048;-80
2022/01/28 00:38:34;;;;;;;2.25;1.30;;;;;;;2.02;76.31;98616.06;2633447;28;20068;-78
2022/01/28 00:39:50;;;;;;;1.90;1.13;;;;;;;2.03;76.25;98620.38;2633447;28;20048;-78
2022/01/28 00:41:05;;;;;;;2.95;1.38;;;;;;;2.07;76.12;98613.53;2631466;28;20085;-79
2022/01/28 00:42:21;;;;;;;3.28;1.95;;;;;;;2.03;76.43;98622.97;2630749;28;20510;-78
2022/01/28 00:43:36;;;;;;;2.10;1.13;;;;;;;2.05;76.34;98616.09;2631003;28;20445;-78
2022/01/28 00:44:52;;;;;;;3.63;1.48;;;;;;;2.01;76.92;98619.50;2631681;28;20055;-81
2022/01/28 00:46:08;;;;;;;2.08;1.55;;;;;;;1.99;76.75;98616.06;2632213;28;20413;-78
2022/01/28 00:47:23;;;;;;;2.00;1.13;;;;;;;2.03;76.30;98620.38;2630492;28;20429;-78
2022/01/28 00:48:39;;;;;;;1.75;1.05;;;;;;;1.98;76.45;98624.66;2630514;28;20092;-78
2022/01/28 00:49:54;;;;;;;1.25;0.90;;;;;;;2.02;76.26;98621.25;2632218;28;20060;-77
2022/01/28 00:51:10;;;;;;;2.17;1.10;;;;;;;1.93;77.01;98618.56;2631158;28;20048;-77
2022/01/28 00:52:26;;;;;;;2.38;1.17;;;;;;;1.89;76.79;98619.38;2632204;28;20048;-77
2022/01/28 00:53:42;;;;;;;1.75;1.25;;;;;;;1.86;77.24;98621.94;2632594;28;20044;-78
2022/01/28 00:54:57;;;;;;;1.85;1.20;;;;;;;1.88;77.25;98613.34;2630242;28;20139;-78
2022/01/28 00:56:13;;;;;;;2.33;1.23;;;;;;;1.82;77.84;98633.94;2630688;28;20506;-80
2022/01/28 00:57:29;;;;;;;2.03;1.30;;;;;;;1.86;77.72;98627.09;2629601;28;20055;-79
2022/01/28 00:58:44;;;;;;;2.75;1.13;;;;;;;1.82;77.75;98621.91;2630692;28;20095;-78
2022/01/28 01:00:00;;;;;;;2.17;0.98;;;;;;;1.86;77.53;98627.97;2630883;28;20944;-79
2022/01/28 01:01:15;;;;;;;2.92;1.60;;;;;;;1.83;77.91;98635.69;2631623;28;20473;-78
2022/01/28 01:02:31;;;;;;;2.28;1.30;;;;;;;1.82;77.94;98627.09;2631128;28;20126;-78
2022/01/28 01:03:47;;;;;;;2.45;1.23;;;;;;;1.82;78.06;98628.78;2631939;28;20391;-82
2022/01/28 01:05:03;;;;;;;2.40;1.42;;;;;;;1.83;78.18;98640.84;2629925;28;20078;-78
2022/01/28 01:06:19;;;;;;;2.53;1.23;;;;;;;1.87;77.95;98632.28;2632967;28;20521;-78
2022/01/28 01:07:35;;;;;;;2.53;1.15;;;;;;;1.90;78.11;98631.44;2632050;28;20051;-78
2022/01/28 01:08:50;;;;;;;2.28;1.42;;;;;;;1.90;78.10;98629.75;2630072;28;20044;-78
2022/01/28 01:10:07;;;;;;;1.50;1.08;;;;;;;1.91;78.25;98634.06;2631355;28;20071;-78
2022/01/28 01:11:24;;;;;;;1.55;1.35;;;;;;;1.92;78.29;98624.56;2630767;28;20398;-84
2022/01/28 01:12:44;;;;;;;1.63;0.85;;;;;;;1.92;78.55;98642.66;2632137;28;20058;-78
2022/01/28 01:14:00;;;;;;;2.10;1.27;;;;;;;1.95;78.40;98640.09;2632548;28;20059;-79
2022/01/28 01:15:20;;;;;;;2.05;1.00;;;;;;;1.92;78.51;98635.78;2630068;28;20052;-78
2022/01/28 01:17:02;;;;;;;2.33;1.40;;;;;;;1.90;78.42;98634.91;2631237;28;20096;-79
2022/01/28 01:18:27;;;;;;;2.38;1.20;;;;;;;1.87;78.54;98641.75;2631637;28;20506;-77
2022/01/28 01:19:47;;;;;;;1.70;1.20;;;;;;;1.91;78.39;98640.91;2620922;28;20048;-78
2022/01/28 01:21:08;;;;;;;3.60;1.30;;;;;;;1.90;78.28;98636.59;2625286;28;20080;-79
2022/01/28 01:22:25;;;;;;;2.03;1.27;;;;;;;1.80;78.86;98651.16;2631015;28;20510;-78
2022/01/28 01:23:50;;;;;;;1.50;1.20;;;;;;;1.80;78.72;98640.81;2629796;28;20145;-78
2022/01/28 01:25:16;;;;;;;2.10;1.40;;;;;;;1.79;78.76;98633.94;2632797;28;20472;-78
2022/01/28 01:26:34;;;;;;;2.05;1.30;;;;;;;1.82;78.67;98639.13;2631118;28;20044;-79
2022/01/28 01:27:54;;;;;;;1.90;1.30;;;;;;;1.81;78.39;98648.56;2629829;28;20044;-81
2022/01/28 01:29:12;;;;;;;2.22;1.30;;;;;;;1.75;78.57;98642.50;2629255;28;20052;-78
2022/01/28 01:30:31;;;;;;;3.20;1.80;;;;;;;1.70;78.54;98652.75;2630178;28;20406;-78
2022/01/28 01:31:48;;;;;;;2.00;1.45;;;;;;;1.78;78.10;98655.44;2631640;28;20133;-78
2022/01/28 01:33:03;;;;;;;1.75;1.20;;;;;;;1.84;77.92;98650.31;2631744;28;20413;-78
2022/01/28 01:34:22;;;;;;;1.95;1.20;;;;;;;1.85;77.47;98652.03;2631653;28;20039;-79
2022/01/28 01:35:39;;;;;;;2.50;1.00;;;;;;;1.84;77.45;98645.16;2629442;28;20109;-79
2022/01/28 01:36:54;;;;;;;2.22;1.30;;;;;;;1.72;78.01;98652.75;2629673;28;20051;-79
2022/01/28 01:38:11;;;;;;;3.30;1.40;;;;;;;1.63;78.08;98651.81;2631050;28;20048;-78
2022/01/28 01:39:30;;;;;;;3.78;1.00;;;;;;;1.79;77.32;98654.56;2631028;28;20505;-79
2022/01/28 01:40:52;;;;;;;1.48;1.10;;;;;;;1.84;77.12;98665.81;2632702;28;20043;-82
2022/01/28 01:42:20;;;;;;;1.02;0.80;;;;;;;1.93;75.97;98660.75;2631707;28;20054;-78
2022/01/28 01:52:03;;;;;;;1.17;0.80;;;;;;;2.20;74.23;98695.47;2630669;28;20528;-78
2022/01/28 01:53:18;;;;;;;3.15;0.90;;;;;;;2.19;74.33;98680.81;2629222;28;20048;-82
2022/01/28 01:54:43;;;;;;;1.50;0.65;;;;;;;2.17;74.27;98679.06;2619108;28;20069;-78
2022/01/28 01:55:59;;;;;;;1.38;1.00;;;;;;;2.10;74.55;98691.91;2626760;28;20142;-78
2022/01/28 01:57:14;;;;;;;2.38;0.85;;;;;;;2.10;74.41;98685.88;2631634;28;20082;-78
2022/01/28 01:58:32;;;;;;;1.00;0.70;;;;;;;2.13;74.06;98700.56;2631932;28;20036;-79
2022/01/28 01:59:48;;;;;;;1.17;0.70;;;;;;;2.06;74.24;98682.38;2630484;28;20044;-78
2022/01/28 02:01:03;;;;;;;0.65;0.52;;;;;;;2.12;73.79;98689.34;2633437;28;20913;-79
2022/01/28 02:02:19;;;;;;;1.02;0.68;;;;;;;2.16;73.70;98687.66;2631613;28;20136;-79
2022/01/28 02:03:35;;;;;;;0.70;0.57;;;;;;;2.15;73.41;98694.53;2631638;28;20052;-78
2022/01/28 02:04:50;;;;;;;2.08;0.60;;;;;;;2.15;73.60;98689.34;2632201;28;20609;-78
2022/01/28 02:06:06;;;;;;;1.40;1.00;;;;;;;2.18;73.01;98680.78;2630092;28;20070;-78
2022/01/28 02:07:23;;;;;;;1.70;0.70;;;;;;;2.17;72.41;98681.63;2630937;28;20055;-78
2022/01/28 02:08:39;;;;;;;1.38;0.55;;;;;;;2.08;72.78;98678.09;2632941;28;20050;-81
2022/01/28 02:09:54;;;;;;;2.15;0.60;;;;;;;2.00;73.23;98679.75;2629436;28;20469;-78
2022/01/28 02:11:10;;;;;;;0.43;0.40;;;;;;;1.88;73.40;98679.63;2631375;28;20052;-78
2022/01/28 02:12:26;;;;;;;1.02;0.80;;;;;;;1.85;73.64;98684.75;2631981;28;20382;-78
2022/01/28 02:13:47;;;;;;;0.57;0.50;;;;;;;1.82;73.47;98685.59;2632285;28;20052;-78
2022/01/28 02:15:03;;;;;;;1.98;0.70;;;;;;;1.81;73.80;98683.84;2629546;28;20381;-78
2022/01/28 02:16:19;;;;;;;2.42;0.60;;;;;;;1.71;73.81;98682.88;2632606;28;20048;-78
2022/01/28 02:17:35;;;;;;;0.70;0.52;;;;;;;1.68;73.92;98685.44;2630035;28;20410;-78
2022/01/28 02:18:50;;;;;;;0.88;0.68;;;;;;;1.71;73.56;98685.47;2632916;28;20048;-81
2022/01/28 02:20:08;;;;;;;0.47;0.47;;;;;;;1.66;73.87;98690.56;2630500;28;20070;-80
2022/01/28 02:21:24;;;;;;;0.70;0.60;;;;;;;1.66;73.71;98690.56;2630771;28;20047;-78
2022/01/28 02:22:40;;;;;;;1.75;0.50;;;;;;;1.77;73.45;98685.53;2632178;28;20406;-78
2022/01/28 02:24:01;;;;;;;2.10;0.80;;;;;;;1.67;73.77;98687.13;2631015;28;20050;-78
2022/01/28 02:25:24;;;;;;;0.77;0.50;;;;;;;1.72;73.59;98683.75;2630880;28;20139;-78
2022/01/28 02:26:40;;;;;;;0.50;0.50;;;;;;;1.76;73.40;98688.09;2631277;28;20051;-79
2022/01/28 02:28:00;;;;;;;0.52;0.50;;;;;;;1.85;73.26;98693.34;2618520;28;20088;-79
2022/01/28 02:29:26;;;;;;;1.67;0.60;;;;;;;1.82;73.59;98691.63;2625524;28;20044;-78
2022/01/28 02:30:41;;;;;;;1.33;0.60;;;;;;;1.84;73.67;98691.63;2630989;28;20047;-78
2022/01/28 02:31:59;;;;;;;2.22;0.63;;;;;;;1.87;73.59;98699.41;2629891;28;20052;-78
2022/01/28 02:33:19;;;;;;;1.00;0.50;;;;;;;1.94;73.24;98697.75;2629430;28;20063;-78
2022/01/28 02:34:37;;;;;;;0.90;0.50;;;;;;;1.92;73.59;98702.03;2630213;28;20048;-79
2022/01/28 02:35:52;;;;;;;0.63;0.43;;;;;;;1.98;73.16;98710.72;2628422;28;20624;-79
2022/01/28 02:37:08;;;;;;;0.70;0.60;;;;;;;2.01;73.06;98704.72;2630100;28;20166;-80
2022/01/28 02:38:24;;;;;;;0.68;0.60;;;;;;;2.04;73.36;98703.91;2630610;28;20139;-78
2022/01/28 02:39:40;;;;;;;0.60;0.55;;;;;;;2.01;73.46;98707.31;2629929;28;20044;-79
2022/01/28 02:40:58;;;;;;;1.13;0.93;;;;;;;1.97;73.45;98698.66;2632406;28;20052;-78
2022/01/28 02:42:20;;;;;;;0.57;0.50;;;;;;;2.03;73.45;98705.59;2629927;28;20050;-78
2022/01/28 02:43:56;;;;;;;0.63;0.52;;;;;;;2.03;72.89;98718.53;2631195;28;20506;-78
2022/01/28 02:45:21;;;;;;;1.63;0.60;;;;;;;2.08;72.46;98706.50;2630464;28;20088;-79
2022/01/28 02:46:40;;;;;;;1.40;0.40;;;;;;;2.14;72.05;98717.78;2629084;28;20048;-79
2022/01/28 02:48:01;;;;;;;0.77;0.50;;;;;;;2.15;72.12;98711.75;2632537;28;20051;-78
2022/01/28 02:49:17;;;;;;;0.57;0.50;;;;;;;2.21;71.56;98716.97;2629616;28;20059;-79
2022/01/28 02:50:41;;;;;;;1.25;0.43;;;;;;;2.18;71.21;98717.84;2629302;28;20050;-78
2022/01/28 02:51:58;;;;;;;1.15;0.50;;;;;;;2.18;71.87;98727.28;2630832;28;20105;-77
2022/01/28 02:53:22;;;;;;;3.20;0.70;;;;;;;2.18;71.22;98723.00;2628635;28;20144;-79
2022/01/28 02:54:45;;;;;;;2.80;0.65;;;;;;;2.19;70.87;98722.16;2630344;28;20055;-79
2022/01/28 02:56:03;;;;;;;3.10;0.82;;;;;;;2.15;71.50;98730.69;2630240;28;20860;-79
2022/01/28 02:57:24;;;;;;;0.88;0.40;;;;;;;2.20;70.52;98735.91;2629566;28;20054;-77
2022/01/28 02:58:41;;;;;;;1.08;0.50;;;;;;;2.20;69.53;98736.78;2628507;28;20486;-78
2022/01/28 02:59:56;;;;;;;0.63;0.47;;;;;;;2.23;68.74;98734.22;2628463;28;20079;-78
2022/01/28 03:01:15;;;;;;;1.60;0.50;;;;;;;2.24;69.31;98741.13;2629562;28;20410;-78
2022/01/28 03:02:30;;;;;;;1.15;0.40;;;;;;;2.23;69.22;98736.81;2619980;28;20044;-79
2022/01/28 03:03:48;;;;;;;1.27;0.40;;;;;;;2.21;69.01;98741.09;2621989;28;20086;-78
2022/01/28 03:05:30;;;;;;;0.90;0.40;;;;;;;2.24;68.57;98738.53;2629056;28;20052;-78
2022/01/28 03:06:45;;;;;;;2.17;0.47;;;;;;;2.26;68.30;98726.50;2629704;28;20082;-78
2022/01/28 03:08:04;;;;;;;2.20;0.50;;;;;;;2.28;68.42;98739.44;2630568;28;20559;-79
2022/01/28 03:09:21;;;;;;;1.63;0.93;;;;;;;2.35;67.67;98741.22;2631749;28;20479;-78
2022/01/28 03:11:12;;;;;;;3.72;0.63;;;;;;;2.42;66.14;98744.75;2632327;28;20528;-79
2022/01/28 03:12:18;;;;;;;1.83;0.57;;;;;;;2.40;67.41;98754.19;2629031;28;20101;-78
2022/01/28 03:13:57;;;;;;;5.05;0.80;;;;;;;2.49;66.33;98749.13;2621107;28;20155;-79
2022/01/28 03:15:17;;;;;;;1.98;0.57;;;;;;;2.49;66.40;98746.56;2620906;28;20047;-80
2022/01/28 03:16:37;;;;;;;0.80;0.50;;;;;;;2.51;66.02;98746.53;2622463;28;20048;-78
2022/01/28 03:19:18;;;;;;;4.75;0.70;;;;;;;2.41;66.68;98748.19;2620493;28;20118;-78
2022/01/28 03:21:57;;;;;;;1.48;0.40;;;;;;;2.38;66.63;98751.63;2620169;28;20084;-77
2022/01/28 03:23:13;;;;;;;2.05;0.95;;;;;;;2.45;66.32;98757.72;2621415;28;20709;-79
2022/01/28 03:24:28;;;;;;;0.50;0.38;;;;;;;2.48;66.13;98755.16;2623543;28;20052;-78
2022/01/28 03:25:46;;;;;;;1.27;0.43;;;;;;;2.47;65.46;98753.44;2620881;28;20075;-80
2022/01/28 03:27:08;;;;;;;1.83;0.60;;;;;;;2.47;65.43;98747.38;2622572;28;20070;-78
2022/01/28 03:28:23;;;;;;;0.47;0.40;;;;;;;2.44;66.13;98750.78;2620519;28;20049;-82
2022/01/28 03:29:39;;;;;;;2.50;0.40;;;;;;;2.43;65.77;98750.78;2619884;28;20082;-78
2022/01/28 03:30:54;;;;;;;2.00;0.52;;;;;;;2.37;66.04;98749.84;2621366;28;20418;-78
2022/01/28 03:32:10;;;;;;;1.92;0.70;;;;;;;2.32;66.12;98756.72;2619600;28;20044;-78
2022/01/28 03:33:26;;;;;;;1.88;0.45;;;;;;;2.39;64.88;98749.88;2622825;28;20244;-78
2022/01/28 03:34:41;;;;;;;0.70;0.50;;;;;;;2.26;65.79;98746.31;2622364;28;20054;-79
2022/01/28 03:35:57;;;;;;;0.75;0.40;;;;;;;2.25;65.91;98752.34;2620932;28;20052;-78
2022/01/28 03:37:14;;;;;;;2.05;0.40;;;;;;;2.22;65.59;98757.44;2620320;28;20048;-78
2022/01/28 03:38:30;;;;;;;1.65;0.50;;;;;;;2.31;65.53;98756.72;2621964;28;20650;-78
2022/01/28 03:39:45;;;;;;;3.55;0.70;;;;;;;2.33;65.28;98753.28;2622127;28;20663;-80
2022/01/28 03:41:01;;;;;;;2.40;0.73;;;;;;;2.29;64.96;98738.59;2623223;28;20056;-79
2022/01/28 03:42:17;;;;;;;1.33;0.57;;;;;;;2.30;65.39;98753.25;2621731;28;20052;-78
2022/01/28 03:43:32;;;;;;;0.32;0.15;;;;;;;2.12;66.15;98764.25;2620012;28;20048;-77
2022/01/28 03:44:48;;;;;;;1.40;0.77;;;;;;;2.05;66.11;98765.03;2621407;28;20041;-78
2022/01/28 03:46:04;;;;;;;1.00;0.30;;;;;;;1.93;67.34;98766.63;2621711;28;20056;-78
2022/01/28 03:47:19;;;;;;;0.10;0.10;;;;;;;2.00;66.39;98770.16;2620285;28;20052;-81
2022/01/28 03:48:35;;;;;;;0.65;0.30;;;;;;;2.13;66.28;98784.06;2622024;28;20060;-78
2022/01/28 03:49:51;;;;;;;3.22;0.57;;;;;;;2.17;66.39;98782.38;2620105;28;20043;-78
2022/01/28 03:51:06;;;;;;;2.70;1.13;;;;;;;2.15;66.55;98777.19;2623395;28;20052;-79
2022/01/28 03:52:22;;;;;;;1.25;0.50;;;;;;;2.14;66.86;98784.94;2620319;28;20045;-78
2022/01/28 03:53:38;;;;;;;3.72;0.70;;;;;;;2.09;66.73;98779.72;2620838;28;20070;-78
2022/01/28 03:54:53;;;;;;;1.30;0.57;;;;;;;2.05;66.90;98786.53;2621287;28;20465;-78
2022/01/28 03:56:09;;;;;;;4.75;0.60;;;;;;;2.12;66.42;98792.66;2621356;28;20244;-79
2022/01/28 03:57:25;;;;;;;1.17;0.52;;;;;;;2.17;66.16;98790.13;2621655;28;20488;-79
2022/01/28 03:58:40;;;;;;;2.53;0.43;;;;;;;2.19;65.84;98786.72;2621873;28;20600;-78
2022/01/28 03:59:56;;;;;;;0.38;0.20;;;;;;;2.19;65.79;98803.94;2620457;28;20113;-78
2022/01/28 04:01:18;;;;;;;2.63;0.50;;;;;;;2.22;65.67;98794.50;2620915;28;20052;-80
2022/01/28 04:02:37;;;;;;;0.30;0.30;;;;;;;2.21;65.59;98790.19;2621839;28;20074;-78
2022/01/28 04:11:33;;;;;;;1.13;0.32;;;;;;;2.19;65.69;98809.09;2622319;28;20128;-79
2022/01/28 04:12:49;;;;;;;1.20;0.20;;;;;;;2.22;65.57;98789.34;2623247;28;20183;-77
2022/01/28 04:14:17;;;;;;;1.27;0.32;;;;;;;2.32;65.15;98800.63;2623089;28;20521;-78
2022/01/28 04:15:48;;;;;;;0.25;0.22;;;;;;;2.23;65.64;98788.47;2623004;28;20130;-82
2022/01/28 04:17:20;;;;;;;2.33;0.52;;;;;;;2.26;65.96;98801.44;2624132;28;20048;-78
2022/01/28 04:18:36;;;;;;;0.70;0.40;;;;;;;2.22;66.01;98791.03;2623573;28;20159;-78
2022/01/28 04:19:52;;;;;;;1.42;0.50;;;;;;;2.21;66.27;98792.78;2611211;28;20103;-78
2022/01/28 04:21:08;;;;;;;4.70;0.73;;;;;;;2.24;66.04;98797.97;2615937;28;20040;-78
2022/01/28 04:22:25;;;;;;;2.97;0.47;;;;;;;2.27;66.00;98797.16;2624303;28;20087;-78
2022/01/28 04:23:41;;;;;;;2.63;0.50;;;;;;;2.34;65.45;98814.44;2622934;28;20349;-79
2022/01/28 04:24:56;;;;;;;1.38;0.60;;;;;;;2.30;66.00;98804.94;2623382;28;20060;-78
2022/01/28 04:26:12;;;;;;;0.30;0.30;;;;;;;2.31;66.04;98806.66;2622991;28;20487;-78
2022/01/28 04:27:28;;;;;;;12.73;0.88;;;;;;;2.31;65.95;98803.22;2623998;28;20495;-79
2022/01/28 04:28:43;;;;;;;2.35;0.60;;;;;;;2.32;65.68;98805.81;2623706;28;20561;-80
2022/01/28 04:29:59;;;;;;;1.00;0.40;;;;;;;2.29;66.58;98812.66;2624032;28;20048;-77
2022/01/28 04:31:15;;;;;;;0.75;0.38;;;;;;;2.29;66.15;98799.72;2622413;28;20044;-78
2022/01/28 04:32:31;;;;;;;4.85;0.88;;;;;;;2.26;66.18;98805.75;2620502;28;20048;-78
2022/01/28 04:33:48;;;;;;;0.30;0.25;;;;;;;2.28;66.24;98805.75;2622037;28;20087;-78
2022/01/28 04:35:04;;;;;;;3.25;0.70;;;;;;;2.34;65.86;98809.25;2623632;28;20521;-78
2022/01/28 04:36:22;;;;;;;1.83;0.38;;;;;;;2.34;66.37;98816.16;2622739;28;20044;-78
2022/01/28 04:39:01;;;;;;;3.55;0.50;;;;;;;2.21;67.24;98815.13;2622395;28;20876;-77
2022/01/28 04:40:21;;;;;;;6.13;0.60;;;;;;;2.20;67.10;98818.56;2622626;28;20040;-78
2022/01/28 04:41:57;;;;;;;0.20;0.20;;;;;;;2.19;67.44;98824.59;2623381;28;20546;-79
2022/01/28 04:43:19;;;;;;;0.65;0.32;;;;;;;2.17;67.11;98836.63;2621927;28;20043;-78
2022/01/28 04:44:52;;;;;;;0.65;0.40;;;;;;;2.14;67.38;98819.38;2622056;28;20072;-78
2022/01/28 04:46:29;;;;;;;0.28;0.20;;;;;;;2.02;67.99;98821.78;2621984;28;20059;-78
2022/01/28 04:47:58;;;;;;;1.70;0.65;;;;;;;2.10;65.54;98817.59;2621842;28;20455;-79
2022/01/28 04:49:30;;;;;;;1.17;0.30;;;;;;;2.04;66.52;98820.97;2625167;28;20059;-77
2022/01/28 04:54:11;;;;;;;1.70;0.30;;;;;;;1.96;65.86;98828.63;2620571;28;20111;-78
2022/01/28 04:58:39;;;;;;;0.68;0.35;;;;;;;1.72;67.08;98831.75;2623321;28;20044;-78
2022/01/28 05:00:10;;;;;;;0.60;0.40;;;;;;;1.81;66.25;98833.59;2623828;28;20044;-78
2022/01/28 05:03:02;;;;;;;2.25;0.73;;;;;;;1.80;65.97;98832.72;2622655;28;20523;-78
2022/01/28 05:24:25;;;;;;;1.98;0.30;;;;;;;1.38;67.09;98833.81;2609082;28;20065;-78
2022/01/28 05:27:07;;;;;;;1.10;0.50;;;;;;;1.44;67.39;98841.66;2632811;28;20207;-77
2022/01/28 05:28:23;;;;;;;1.85;0.30;;;;;;;1.47;67.43;98836.56;2634679;28;20054;-78
2022/01/28 05:29:42;;;;;;;3.05;1.10;;;;;;;1.43;67.69;98836.47;2633105;28;20505;-78
2022/01/28 05:30:57;;;;;;;5.00;0.38;;;;;;;1.46;67.60;98847.72;2632891;28;20044;-78
2022/01/28 05:32:13;;;;;;;0.80;0.35;;;;;;;1.45;67.97;98850.25;2622687;28;20095;-78
2022/01/28 05:33:29;;;;;;;1.77;0.40;;;;;;;1.42;68.52;98856.25;2627260;28;20072;-78
2022/01/28 05:34:44;;;;;;;1.30;0.20;;;;;;;1.40;68.86;98861.38;2631515;28;20047;-78
2022/01/28 05:36:00;;;;;;;1.27;0.52;;;;;;;1.38;69.10;98875.09;2634094;28;20048;-79
2022/01/28 05:37:15;;;;;;;1.95;0.60;;;;;;;1.35;69.42;98867.31;2631078;28;20261;-77
2022/01/28 05:38:31;;;;;;;1.17;0.50;;;;;;;1.31;69.53;98874.13;2633586;28;20539;-78
2022/01/28 05:39:47;;;;;;;2.33;0.45;;;;;;;1.37;69.58;98874.25;2634188;28;20489;-78
2022/01/28 05:41:02;;;;;;;0.98;0.50;;;;;;;1.45;70.09;98869.22;2632366;28;20074;-78
2022/01/28 05:42:18;;;;;;;2.30;0.73;;;;;;;1.49;70.03;98863.25;2633180;28;20074;-77
2022/01/28 05:43:37;;;;;;;0.90;0.50;;;;;;;1.43;70.19;98868.31;2633717;28;20059;-77
2022/01/28 05:44:53;;;;;;;2.35;0.50;;;;;;;1.53;70.04;98867.59;2633372;28;20047;-83
2022/01/28 05:46:08;;;;;;;1.30;0.55;;;;;;;1.52;70.49;98875.34;2633858;28;20052;-78
2022/01/28 05:47:24;;;;;;;0.20;0.20;;;;;;;1.62;70.07;98871.19;2631870;28;20828;-77
2022/01/28 05:48:40;;;;;;;0.30;0.30;;;;;;;1.62;70.12;98878.91;2632214;28;20048;-78
2022/01/28 05:49:56;;;;;;;0.68;0.20;;;;;;;1.67;70.01;98869.53;2634025;28;20351;-78
2022/01/28 05:51:12;;;;;;;2.53;0.52;;;;;;;1.76;69.42;98869.66;2631633;28;20044;-78
2022/01/28 05:52:28;;;;;;;2.08;0.70;;;;;;;1.85;69.38;98871.50;2632969;28;20048;-77
2022/01/28 05:53:44;;;;;;;4.75;0.68;;;;;;;1.82;69.89;98877.50;2632640;28;20627;-78
2022/01/28 05:54:59;;;;;;;2.72;0.50;;;;;;;1.86;69.49;98877.56;2632809;28;20067;-79
2022/01/28 05:56:15;;;;;;;1.00;0.43;;;;;;;1.89;68.56;98877.59;2631371;28;20071;-78
2022/01/28 05:57:30;;;;;;;1.17;0.60;;;;;;;1.95;68.31;98881.13;2633577;28;20196;-78
2022/01/28 05:58:46;;;;;;;1.23;0.50;;;;;;;1.97;68.54;98891.50;2632175;28;20048;-78
2022/01/28 06:00:04;;;;;;;3.53;0.50;;;;;;;1.93;68.28;98889.69;2631481;28;20066;-78
2022/01/28 06:01:20;;;;;;;7.20;0.60;;;;;;;2.01;68.10;98889.78;2632440;28;20423;-78
2022/01/28 06:02:36;;;;;;;2.03;0.60;;;;;;;1.99;68.71;98897.53;2630822;28;20101;-77
2022/01/28 06:03:51;;;;;;;0.75;0.30;;;;;;;1.95;68.55;98894.03;2633085;28;20525;-79
2022/01/28 06:05:07;;;;;;;3.10;0.60;;;;;;;1.98;68.17;98899.22;2632800;28;20059;-78
2022/01/28 06:06:24;;;;;;;3.92;0.52;;;;;;;2.02;67.61;98902.75;2632465;28;20044;-79
2022/01/28 06:07:42;;;;;;;2.42;0.75;;;;;;;2.03;68.19;98901.03;2633809;28;20421;-79
2022/01/28 06:08:57;;;;;;;0.80;0.30;;;;;;;1.98;68.10;98909.56;2632052;28;20478;-78
2022/01/28 06:10:17;;;;;;;1.20;0.60;;;;;;;1.99;68.36;98910.44;2631922;28;20100;-78
2022/01/28 06:11:33;;;;;;;3.33;0.50;;;;;;;1.94;69.05;98906.91;2634480;28;20104;-78
2022/01/28 06:12:48;;;;;;;3.20;0.80;;;;;;;1.96;68.66;98911.25;2631598;28;20068;-78
2022/01/28 06:14:04;;;;;;;2.25;0.50;;;;;;;1.92;69.13;98918.94;2626418;28;20090;-78
2022/01/28 06:15:20;;;;;;;3.13;0.68;;;;;;;1.97;68.86;98915.56;2626983;28;20405;-79
2022/01/28 06:16:35;;;;;;;1.95;0.60;;;;;;;1.91;69.12;98912.03;2626685;28;20106;-79
2022/01/28 06:17:51;;;;;;;1.48;0.25;;;;;;;1.92;68.26;98911.19;2627396;28;20048;-79
2022/01/28 06:19:06;;;;;;;4.30;0.70;;;;;;;1.97;68.49;98920.75;2626978;28;20113;-78
2022/01/28 06:20:22;;;;;;;1.70;0.70;;;;;;;1.96;68.55;98931.06;2627264;28;20053;-78
2022/01/28 06:21:37;;;;;;;2.90;0.40;;;;;;;2.01;67.92;98923.38;2627426;28;20503;-78
2022/01/28 06:22:53;;;;;;;1.70;0.50;;;;;;;2.01;68.40;98928.53;2627177;28;20040;-78
2022/01/28 06:24:09;;;;;;;0.70;0.50;;;;;;;2.00;68.60;98940.59;2626858;28;20059;-77
2022/01/28 06:25:24;;;;;;;1.88;0.70;;;;;;;2.00;68.22;98938.00;2627184;28;20512;-79
2022/01/28 06:26:40;;;;;;;2.67;0.30;;;;;;;1.97;68.80;98938.81;2626874;28;20052;-79
2022/01/28 06:27:56;;;;;;;1.73;0.50;;;;;;;1.93;68.19;98934.47;2627179;28;20044;-79
2022/01/28 06:29:12;;;;;;;6.88;0.88;;;;;;;2.04;67.86;98939.78;2627272;28;20052;-78
2022/01/28 06:30:28;;;;;;;3.10;0.70;;;;;;;1.96;68.10;98941.41;2627282;28;20562;-77
2022/01/28 06:31:44;;;;;;;1.02;0.40;;;;;;;1.95;68.05;98958.59;2626766;28;20079;-78
2022/01/28 06:33:00;;;;;;;3.45;0.52;;;;;;;2.00;68.20;98961.25;2624909;28;20673;-79
2022/01/28 06:34:15;;;;;;;3.22;0.98;;;;;;;1.98;68.29;98955.19;2626332;28;20105;-78
2022/01/28 06:35:31;;;;;;;2.03;0.93;;;;;;;1.94;68.91;98967.19;2626890;28;20907;-81
2022/01/28 06:36:46;;;;;;;3.03;0.77;;;;;;;1.95;67.89;98950.84;2626759;28;20458;-78
2022/01/28 06:38:02;;;;;;;3.42;0.60;;;;;;;2.01;68.23;98959.53;2627090;28;20572;-78
2022/01/28 06:39:17;;;;;;;4.68;1.23;;;;;;;1.94;68.24;98961.13;2626828;28;20557;-77
2022/01/28 06:40:33;;;;;;;3.40;0.80;;;;;;;1.95;67.48;98968.03;2627168;28;20044;-78
2022/01/28 06:41:48;;;;;;;3.50;0.70;;;;;;;1.95;67.39;98961.19;2626514;28;20044;-78
2022/01/28 06:43:07;;;;;;;3.10;0.80;;;;;;;2.03;66.51;98961.28;2627157;28;20059;-78
2022/01/28 06:44:23;;;;;;;2.00;0.70;;;;;;;2.10;66.25;98967.41;2626842;28;20106;-78
2022/01/28 06:45:42;;;;;;;2.72;0.85;;;;;;;2.11;65.34;98967.44;2626697;28;20905;-80
2022/01/28 06:46:57;;;;;;;3.00;1.05;;;;;;;2.15;65.64;98964.91;2626808;28;20048;-77
2022/01/28 06:48:16;;;;;;;4.53;1.08;;;;;;;2.21;64.91;98967.56;2626710;28;20063;-79
2022/01/28 06:49:31;;;;;;;4.20;0.80;;;;;;;2.18;65.25;98980.44;2626255;28;20479;-77
2022/01/28 06:50:48;;;;;;;3.35;0.73;;;;;;;2.22;64.32;98958.97;2627155;28;20406;-82
2022/01/28 06:52:05;;;;;;;3.53;0.88;;;;;;;2.24;64.30;98970.22;2626370;28;20465;-85
2022/01/28 06:53:20;;;;;;;2.30;0.55;;;;;;;2.22;63.69;98974.47;2626114;28;20048;-84
2022/01/28 06:54:36;;;;;;;4.13;1.30;;;;;;;2.19;63.79;98967.56;2627674;28;20526;-81
2022/01/28 06:55:51;;;;;;;2.28;0.77;;;;;;;2.14;64.16;98970.91;2625843;28;20274;-80
2022/01/28 06:57:07;;;;;;;3.03;0.80;;;;;;;2.09;64.38;98963.09;2626054;28;20058;-79
2022/01/28 06:58:23;;;;;;;2.53;0.73;;;;;;;2.08;64.03;98972.53;2626780;28;20131;-84
2022/01/28 06:59:38;;;;;;;2.67;0.63;;;;;;;2.21;62.98;98959.81;2626935;28;20533;-80
2022/01/28 07:00:54;;;;;;;1.95;0.60;;;;;;;2.14;63.58;98964.03;2615875;28;20114;-79
2022/01/28 07:02:10;;;;;;;4.10;0.60;;;;;;;2.16;63.62;98966.63;2620014;28;20055;-80
2022/01/28 07:03:25;;;;;;;5.82;0.68;;;;;;;2.07;64.14;98955.31;2626629;28;20048;-79
2022/01/28 07:04:41;;;;;;;1.63;0.82;;;;;;;2.08;63.71;98969.13;2626763;28;20052;-82
2022/01/28 07:05:56;;;;;;;2.08;1.08;;;;;;;2.11;63.87;98961.41;2626951;28;20044;-80
2022/01/28 07:07:12;;;;;;;1.60;0.73;;;;;;;2.17;63.94;98968.38;2615853;28;20044;-79
2022/01/28 07:08:28;;;;;;;2.92;0.80;;;;;;;2.18;64.18;98967.53;2619658;28;20071;-79
2022/01/28 07:09:45;;;;;;;1.75;0.70;;;;;;;2.21;63.67;98983.06;2626669;28;20082;-78
2022/01/28 07:11:01;;;;;;;2.60;0.52;;;;;;;2.14;64.41;98973.50;2626408;28;20448;-83
2022/01/28 07:12:17;;;;;;;4.72;1.05;;;;;;;2.07;64.89;98981.16;2626898;28;20059;-79
2022/01/28 07:13:33;;;;;;;1.48;0.70;;;;;;;2.13;64.03;98964.88;2620168;28;20432;-79
2022/01/28 07:14:49;;;;;;;3.38;0.88;;;;;;;2.18;64.43;98978.75;2621848;28;20642;-78
2022/01/28 07:16:05;;;;;;;6.50;0.85;;;;;;;2.18;63.83;98972.69;2621007;28;20059;-79
2022/01/28 07:17:21;;;;;;;5.25;0.60;;;;;;;2.21;63.79;98977.91;2621910;28;20646;-79
2022/01/28 07:18:36;;;;;;;1.98;0.52;;;;;;;2.22;64.12;98974.47;2619941;28;20044;-79
2022/01/28 07:19:52;;;;;;;2.08;0.80;;;;;;;2.23;63.88;98976.19;2619773;28;20048;-82
2022/01/28 07:21:07;;;;;;;2.17;0.70;;;;;;;2.28;63.22;98977.16;2622278;28;20086;-84